createdAt,value
2023-05-10T00:00:09.662Z,1009.89
2023-05-10T00:00:40.240Z,1009.89
2023-05-10T00:01:11.154Z,1009.79
2023-05-10T00:01:42.425Z,1009.79
2023-05-10T00:02:13.232Z,1009.99
2023-05-10T00:02:44.533Z,1009.99
2023-05-10T00:03:15.504Z,1009.99
2023-05-10T00:03:46.518Z,1009.99
2023-05-10T00:04:17.044Z,1009.89
2023-05-10T00:04:48.434Z,1009.89
2023-05-10T00:05:19.628Z,1009.89
2023-05-10T00:05:50.495Z,1009.89
2023-05-10T00:06:21.481Z,1009.89
2023-05-10T00:06:52.056Z,1009.89
2023-05-10T00:07:23.439Z,1009.99
2023-05-10T00:07:54.083Z,1009.99
2023-05-10T00:08:25.220Z,1009.99
2023-05-10T00:08:56.238Z,1009.99
2023-05-10T00:09:27.002Z,1009.99
2023-05-10T00:09:58.346Z,1009.99
2023-05-10T00:10:29.331Z,1009.79
2023-05-10T00:11:00.204Z,1009.79
2023-05-10T00:11:31.505Z,1009.89
2023-05-10T00:12:02.399Z,1009.89
2023-05-10T00:12:33.781Z,1009.89
2023-05-10T00:13:04.434Z,1009.58
2023-05-10T00:13:35.068Z,1009.58
2023-05-10T00:14:06.333Z,1009.68
2023-05-10T00:14:37.086Z,1009.68
2023-05-10T00:15:08.557Z,1009.89
2023-05-10T00:15:39.127Z,1009.89
2023-05-10T00:16:10.000Z,1009.89
2023-05-10T00:16:41.402Z,1009.89
2023-05-10T00:17:12.033Z,1009.79
2023-05-10T00:17:43.118Z,1009.79
2023-05-10T00:18:14.378Z,1009.89
2023-05-10T00:18:45.886Z,1009.89
2023-05-10T00:19:16.168Z,1009.79
2023-05-10T00:19:47.319Z,1009.79
2023-05-10T00:20:19.102Z,1009.89
2023-05-10T00:20:49.206Z,1009.89
2023-05-10T00:21:20.283Z,1009.99
2023-05-10T00:21:51.519Z,1009.99
2023-05-10T00:22:22.070Z,1009.79
2023-05-10T00:22:54.199Z,1009.79
2023-05-10T00:23:24.396Z,1009.89
2023-05-10T00:23:55.420Z,1009.89
2023-05-10T00:24:26.161Z,1009.79
2023-05-10T00:24:58.875Z,1009.79
2023-05-10T00:25:28.599Z,1009.89
2023-05-10T00:25:59.158Z,1009.89
2023-05-10T00:26:30.318Z,1009.89
2023-05-10T00:27:01.137Z,1009.89
2023-05-10T00:27:32.162Z,1009.68
2023-05-10T00:28:03.664Z,1009.68
2023-05-10T00:28:34.610Z,1009.79
2023-05-10T00:29:05.236Z,1009.68
2023-05-10T00:29:36.300Z,1009.68
2023-05-10T00:30:07.906Z,1009.89
2023-05-10T00:30:38.123Z,1009.89
2023-05-10T00:31:09.056Z,1009.68
2023-05-10T00:31:40.250Z,1009.68
2023-05-10T00:32:11.215Z,1009.58
2023-05-10T00:32:42.301Z,1009.58
2023-05-10T00:33:13.276Z,1009.89
2023-05-10T00:33:44.603Z,1009.89
2023-05-10T00:34:15.370Z,1009.99
2023-05-10T00:34:46.121Z,1009.99
2023-05-10T00:35:17.406Z,1009.89
2023-05-10T00:35:48.074Z,1009.89
2023-05-10T00:36:19.375Z,1009.89
2023-05-10T00:36:50.172Z,1009.89
2023-05-10T00:37:21.421Z,1009.79
2023-05-10T00:37:52.114Z,1009.79
2023-05-10T00:38:23.260Z,1009.79
2023-05-10T00:38:54.364Z,1009.79
2023-05-10T00:39:25.338Z,1009.89
2023-05-10T00:39:56.325Z,1009.89
2023-05-10T00:40:27.631Z,1009.58
2023-05-10T00:40:58.428Z,1009.58
2023-05-10T00:41:29.308Z,1009.58
2023-05-10T00:42:00.183Z,1009.58
2023-05-10T00:42:31.391Z,1009.58
2023-05-10T00:43:02.159Z,1009.58
2023-05-10T00:43:33.242Z,1009.68
2023-05-10T00:44:04.362Z,1009.68
2023-05-10T00:44:35.579Z,1009.68
2023-05-10T00:45:07.339Z,1009.79
2023-05-10T00:45:37.485Z,1009.79
2023-05-10T00:46:08.577Z,1009.68
2023-05-10T00:46:39.515Z,1009.68
2023-05-10T00:47:10.310Z,1009.89
2023-05-10T00:47:41.849Z,1009.89
2023-05-10T00:48:12.543Z,1009.68
2023-05-10T00:48:43.438Z,1009.68
2023-05-10T00:49:14.556Z,1009.79
2023-05-10T00:50:17.177Z,1009.79
2023-05-10T00:50:47.589Z,1009.79
2023-05-10T00:51:18.286Z,1009.68
2023-05-10T00:51:49.285Z,1009.68
2023-05-10T00:52:20.596Z,1009.99
2023-05-10T00:52:51.439Z,1009.99
2023-05-10T00:53:22.228Z,1009.68
2023-05-10T00:53:53.306Z,1009.68
2023-05-10T00:54:26.701Z,1009.89
2023-05-10T00:54:55.227Z,1009.89
2023-05-10T00:55:28.578Z,1009.79
2023-05-10T00:55:57.181Z,1009.79
2023-05-10T00:56:28.804Z,1009.58
2023-05-10T00:56:59.400Z,1009.58
2023-05-10T00:57:30.591Z,1009.79
2023-05-10T00:58:01.938Z,1009.79
2023-05-10T00:58:32.302Z,1009.79
2023-05-10T00:59:03.447Z,1009.79
2023-05-10T00:59:34.596Z,1009.79
2023-05-10T01:00:06.245Z,1009.58
2023-05-10T01:00:36.260Z,1009.58
2023-05-10T01:01:07.262Z,1009.89
2023-05-10T01:01:38.532Z,1009.89
2023-05-10T01:02:09.273Z,1009.79
2023-05-10T01:02:40.268Z,1009.79
2023-05-10T01:03:11.382Z,1009.68
2023-05-10T01:03:42.409Z,1009.68
2023-05-10T01:04:13.607Z,1009.68
2023-05-10T01:04:44.335Z,1009.68
2023-05-10T01:05:16.098Z,1009.89
2023-05-10T01:05:46.260Z,1009.89
2023-05-10T01:06:17.501Z,1009.58
2023-05-10T01:06:48.643Z,1009.58
2023-05-10T01:07:19.278Z,1009.89
2023-05-10T01:07:50.685Z,1009.89
2023-05-10T01:08:21.797Z,1009.99
2023-05-10T01:08:52.323Z,1009.99
2023-05-10T01:09:23.281Z,1009.68
2023-05-10T01:09:54.462Z,1009.68
2023-05-10T01:10:25.974Z,1009.58
2023-05-10T01:10:56.458Z,1009.58
2023-05-10T01:11:27.527Z,1009.68
2023-05-10T01:11:58.511Z,1009.68
2023-05-10T01:12:29.721Z,1009.79
2023-05-10T01:13:00.277Z,1009.79
2023-05-10T01:13:31.796Z,1009.51
2023-05-10T01:14:02.558Z,1009.51
2023-05-10T01:14:33.362Z,1009.68
2023-05-10T01:15:04.790Z,1009.68
2023-05-10T01:15:35.533Z,1009.68
2023-05-10T01:16:06.604Z,1009.51
2023-05-10T01:16:37.292Z,1009.51
2023-05-10T01:17:08.417Z,1009.89
2023-05-10T01:17:39.564Z,1009.89
2023-05-10T01:18:10.638Z,1009.89
2023-05-10T01:18:41.770Z,1009.89
2023-05-10T01:19:12.245Z,1010.09
2023-05-10T01:19:43.776Z,1010.09
2023-05-10T01:20:15.156Z,1009.89
2023-05-10T01:20:45.286Z,1009.89
2023-05-10T01:21:16.383Z,1009.89
2023-05-10T01:21:47.312Z,1009.89
2023-05-10T01:22:18.529Z,1009.89
2023-05-10T01:22:49.702Z,1009.89
2023-05-10T01:23:20.566Z,1009.89
2023-05-10T01:23:51.399Z,1009.89
2023-05-10T01:24:22.367Z,1009.79
2023-05-10T01:24:53.564Z,1009.79
2023-05-10T01:25:24.806Z,1009.89
2023-05-10T01:25:57.732Z,1009.89
2023-05-10T01:26:26.563Z,1010.09
2023-05-10T01:26:59.876Z,1010.09
2023-05-10T01:27:28.471Z,1009.58
2023-05-10T01:28:00.068Z,1009.58
2023-05-10T01:28:30.524Z,1009.68
2023-05-10T01:29:01.810Z,1009.68
2023-05-10T01:29:32.708Z,1009.89
2023-05-10T01:30:34.352Z,1009.89
2023-05-10T01:31:05.828Z,1009.89
2023-05-10T01:31:36.836Z,1009.89
2023-05-10T01:32:07.320Z,1009.79
2023-05-10T01:32:38.396Z,1009.79
2023-05-10T01:33:09.403Z,1009.89
2023-05-10T01:33:40.384Z,1009.89
2023-05-10T01:34:11.364Z,1009.68
2023-05-10T01:34:42.469Z,1009.68
2023-05-10T01:35:14.284Z,1009.79
2023-05-10T01:35:44.403Z,1009.79
2023-05-10T01:36:15.849Z,1009.79
2023-05-10T01:36:46.641Z,1009.79
2023-05-10T01:37:17.809Z,1009.68
2023-05-10T01:37:48.410Z,1009.68
2023-05-10T01:38:19.369Z,1009.68
2023-05-10T01:38:50.463Z,1009.68
2023-05-10T01:39:21.559Z,1009.89
2023-05-10T01:39:52.341Z,1009.89
2023-05-10T01:40:24.294Z,1009.79
2023-05-10T01:40:54.329Z,1009.79
2023-05-10T01:41:25.400Z,1009.68
2023-05-10T01:41:56.809Z,1009.68
2023-05-10T01:42:27.606Z,1009.68
2023-05-10T01:42:58.488Z,1009.68
2023-05-10T01:43:29.756Z,1009.68
2023-05-10T01:44:00.485Z,1009.68
2023-05-10T01:44:31.483Z,1009.89
2023-05-10T01:45:03.191Z,1009.89
2023-05-10T01:45:33.383Z,1009.99
2023-05-10T01:46:04.635Z,1009.79
2023-05-10T01:46:35.470Z,1009.79
2023-05-10T01:47:06.768Z,1009.79
2023-05-10T01:47:37.752Z,1009.79
2023-05-10T01:48:08.524Z,1009.99
2023-05-10T01:48:39.584Z,1009.99
2023-05-10T01:49:10.390Z,1009.89
2023-05-10T01:49:41.440Z,1009.89
2023-05-10T01:50:12.698Z,1009.79
2023-05-10T01:50:43.383Z,1009.79
2023-05-10T01:51:14.409Z,1009.89
2023-05-10T01:51:46.079Z,1009.89
2023-05-10T01:52:16.395Z,1009.99
2023-05-10T01:52:47.867Z,1009.99
2023-05-10T01:53:18.484Z,1009.89
2023-05-10T01:53:49.662Z,1009.89
2023-05-10T01:54:20.820Z,1009.89
2023-05-10T01:54:51.686Z,1009.89
2023-05-10T01:55:22.741Z,1009.99
2023-05-10T01:55:53.405Z,1009.99
2023-05-10T01:56:24.681Z,1009.79
2023-05-10T01:56:55.498Z,1009.79
2023-05-10T01:57:28.521Z,1010.09
2023-05-10T01:57:57.652Z,1010.09
2023-05-10T01:58:29.722Z,1010.09
2023-05-10T01:58:59.786Z,1010.09
2023-05-10T01:59:31.002Z,1009.99
2023-05-10T02:00:02.472Z,1009.99
2023-05-10T02:00:32.838Z,1009.79
2023-05-10T02:01:03.793Z,1009.79
2023-05-10T02:01:34.817Z,1010.09
2023-05-10T02:02:05.607Z,1009.89
2023-05-10T02:02:36.772Z,1009.89
2023-05-10T02:03:07.508Z,1009.99
2023-05-10T02:03:38.506Z,1009.99
2023-05-10T02:04:09.541Z,1009.89
2023-05-10T02:04:40.445Z,1009.89
2023-05-10T02:05:11.741Z,1009.99
2023-05-10T02:05:43.006Z,1009.99
2023-05-10T02:06:13.495Z,1009.89
2023-05-10T02:06:44.524Z,1009.89
2023-05-10T02:07:15.696Z,1009.99
2023-05-10T02:07:46.482Z,1009.99
2023-05-10T02:08:17.794Z,1010.09
2023-05-10T02:08:48.789Z,1010.09
2023-05-10T02:09:19.715Z,1009.89
2023-05-10T02:09:50.763Z,1009.89
2023-05-10T02:10:22.086Z,1010.09
2023-05-10T02:10:52.487Z,1010.09
2023-05-10T02:11:23.473Z,1010.19
2023-05-10T02:11:54.518Z,1010.19
2023-05-10T02:12:25.904Z,1009.99
2023-05-10T02:12:56.503Z,1009.99
2023-05-10T02:13:27.515Z,1010.40
2023-05-10T02:13:58.546Z,1010.40
2023-05-10T02:14:29.804Z,1009.99
2023-05-10T02:15:01.361Z,1009.99
2023-05-10T02:15:31.720Z,1010.29
2023-05-10T02:16:03.132Z,1010.29
2023-05-10T02:16:33.596Z,1010.09
2023-05-10T02:17:04.654Z,1010.29
2023-05-10T02:17:35.872Z,1010.29
2023-05-10T02:18:06.553Z,1010.09
2023-05-10T02:18:37.739Z,1010.09
2023-05-10T02:19:08.719Z,1010.40
2023-05-10T02:19:39.888Z,1010.40
2023-05-10T02:20:11.258Z,1010.19
2023-05-10T02:20:41.955Z,1010.19
2023-05-10T02:21:13.081Z,1010.09
2023-05-10T02:21:43.914Z,1010.09
2023-05-10T02:22:14.513Z,1010.19
2023-05-10T02:22:46.223Z,1010.19
2023-05-10T02:23:16.551Z,1009.99
2023-05-10T02:23:47.569Z,1009.99
2023-05-10T02:24:18.540Z,1010.19
2023-05-10T02:24:49.794Z,1010.19
2023-05-10T02:25:21.271Z,1010.09
2023-05-10T02:25:51.584Z,1010.09
2023-05-10T02:26:22.640Z,1010.09
2023-05-10T02:26:53.525Z,1010.09
2023-05-10T02:27:24.560Z,1010.09
2023-05-10T02:27:55.800Z,1010.09
2023-05-10T02:28:26.914Z,1010.19
2023-05-10T02:28:59.914Z,1010.19
2023-05-10T02:29:28.806Z,1010.19
2023-05-10T02:30:02.644Z,1010.19
2023-05-10T02:30:30.634Z,1010.09
2023-05-10T02:31:01.522Z,1010.09
2023-05-10T02:31:33.010Z,1010.29
2023-05-10T02:32:04.071Z,1010.29
2023-05-10T02:32:34.908Z,1010.29
2023-05-10T02:33:05.613Z,1010.19
2023-05-10T02:33:36.570Z,1010.19
2023-05-10T02:34:07.597Z,1010.40
2023-05-10T02:34:38.949Z,1010.40
2023-05-10T02:35:09.954Z,1010.19
2023-05-10T02:35:40.479Z,1010.19
2023-05-10T02:36:11.922Z,1010.19
2023-05-10T02:36:42.792Z,1010.19
2023-05-10T02:37:13.572Z,1010.19
2023-05-10T02:37:44.838Z,1010.19
2023-05-10T02:38:15.858Z,1010.29
2023-05-10T02:38:46.755Z,1010.29
2023-05-10T02:39:17.561Z,1010.19
2023-05-10T02:39:48.571Z,1010.19
2023-05-10T02:40:20.076Z,1010.29
2023-05-10T02:40:50.899Z,1010.29
2023-05-10T02:41:21.800Z,1010.19
2023-05-10T02:41:52.624Z,1010.19
2023-05-10T02:42:23.563Z,1010.09
2023-05-10T02:42:54.959Z,1010.09
2023-05-10T02:43:25.884Z,1010.40
2023-05-10T02:43:56.638Z,1010.40
2023-05-10T02:44:27.960Z,1010.40
2023-05-10T02:44:58.881Z,1010.40
2023-05-10T02:45:30.513Z,1010.50
2023-05-10T02:46:00.801Z,1010.50
2023-05-10T02:46:32.763Z,1010.40
2023-05-10T02:47:02.679Z,1010.40
2023-05-10T02:47:33.989Z,1010.19
2023-05-10T02:48:04.737Z,1010.19
2023-05-10T02:48:35.630Z,1010.19
2023-05-10T02:49:06.749Z,1010.19
2023-05-10T02:49:37.981Z,1010.19
2023-05-10T02:50:09.127Z,1010.29
2023-05-10T02:50:39.588Z,1010.29
2023-05-10T02:51:10.935Z,1010.19
2023-05-10T02:51:41.681Z,1010.19
2023-05-10T02:52:12.763Z,1010.60
2023-05-10T02:52:43.724Z,1010.60
2023-05-10T02:53:14.930Z,1010.19
2023-05-10T02:53:45.667Z,1010.19
2023-05-10T02:54:16.886Z,1010.29
2023-05-10T02:54:47.948Z,1010.29
2023-05-10T02:55:19.395Z,1010.40
2023-05-10T02:55:49.943Z,1010.40
2023-05-10T02:56:21.030Z,1010.29
2023-05-10T02:56:51.900Z,1010.29
2023-05-10T02:57:23.445Z,1010.29
2023-05-10T02:57:53.661Z,1010.29
2023-05-10T02:58:25.261Z,1010.50
2023-05-10T02:58:55.667Z,1010.50
2023-05-10T02:59:26.643Z,1010.19
2023-05-10T02:59:57.661Z,1010.19
2023-05-10T03:00:30.804Z,1010.40
2023-05-10T03:01:00.315Z,1010.40
2023-05-10T03:01:33.180Z,1010.60
2023-05-10T03:02:02.578Z,1010.60
2023-05-10T03:02:33.543Z,1010.29
2023-05-10T03:03:03.640Z,1010.29
2023-05-10T03:03:36.547Z,1010.50
2023-05-10T03:04:06.405Z,1010.60
2023-05-10T03:04:37.118Z,1010.60
2023-05-10T03:05:08.004Z,1010.40
2023-05-10T03:05:38.982Z,1010.40
2023-05-10T03:06:10.660Z,1010.40
2023-05-10T03:06:41.128Z,1010.40
2023-05-10T03:07:11.931Z,1010.50
2023-05-10T03:07:43.278Z,1010.50
2023-05-10T03:08:14.244Z,1010.40
2023-05-10T03:08:44.688Z,1010.40
2023-05-10T03:09:15.862Z,1010.60
2023-05-10T03:09:47.072Z,1010.60
2023-05-10T03:10:18.405Z,1010.40
2023-05-10T03:10:48.954Z,1010.40
2023-05-10T03:11:20.562Z,1010.40
2023-05-10T03:11:51.100Z,1010.40
2023-05-10T03:12:21.691Z,1010.60
2023-05-10T03:12:52.819Z,1010.60
2023-05-10T03:13:23.866Z,1010.40
2023-05-10T03:13:54.725Z,1010.40
2023-05-10T03:14:25.891Z,1010.70
2023-05-10T03:14:56.891Z,1010.70
2023-05-10T03:15:28.741Z,1010.70
2023-05-10T03:15:59.122Z,1010.70
2023-05-10T03:16:30.365Z,1010.60
2023-05-10T03:17:00.708Z,1010.60
2023-05-10T03:17:32.220Z,1010.70
2023-05-10T03:18:03.235Z,1010.70
2023-05-10T03:18:34.312Z,1010.60
2023-05-10T03:19:05.186Z,1010.60
2023-05-10T03:19:36.219Z,1010.60
2023-05-10T03:20:07.384Z,1010.50
2023-05-10T03:20:37.761Z,1010.50
2023-05-10T03:21:09.134Z,1010.80
2023-05-10T03:21:40.093Z,1010.80
2023-05-10T03:22:10.928Z,1010.50
2023-05-10T03:22:42.564Z,1010.50
2023-05-10T03:23:13.434Z,1010.50
2023-05-10T03:23:43.685Z,1010.50
2023-05-10T03:24:14.782Z,1010.80
2023-05-10T03:24:46.244Z,1010.80
2023-05-10T03:25:17.750Z,1010.40
2023-05-10T03:25:47.716Z,1010.40
2023-05-10T03:26:18.985Z,1010.60
2023-05-10T03:26:49.689Z,1010.60
2023-05-10T03:27:20.771Z,1010.50
2023-05-10T03:27:52.000Z,1010.50
2023-05-10T03:28:23.369Z,1010.70
2023-05-10T03:28:54.137Z,1010.70
2023-05-10T03:29:25.005Z,1010.60
2023-05-10T03:29:56.005Z,1010.60
2023-05-10T03:30:27.679Z,1010.80
2023-05-10T03:30:57.930Z,1010.80
2023-05-10T03:31:29.106Z,1010.80
2023-05-10T03:32:01.240Z,1010.80
2023-05-10T03:32:31.196Z,1010.80
2023-05-10T03:33:03.042Z,1010.80
2023-05-10T03:33:33.362Z,1010.60
2023-05-10T03:34:04.150Z,1010.60
2023-05-10T03:34:35.100Z,1010.90
2023-05-10T03:35:06.456Z,1010.60
2023-05-10T03:35:36.687Z,1010.60
2023-05-10T03:36:08.048Z,1010.90
2023-05-10T03:36:38.794Z,1010.90
2023-05-10T03:37:09.983Z,1011.00
2023-05-10T03:37:40.991Z,1011.00
2023-05-10T03:38:12.087Z,1010.80
2023-05-10T03:38:43.505Z,1010.80
2023-05-10T03:39:13.692Z,1010.70
2023-05-10T03:39:45.182Z,1010.70
2023-05-10T03:40:16.284Z,1010.90
2023-05-10T03:40:46.720Z,1010.90
2023-05-10T03:41:17.895Z,1010.80
2023-05-10T03:41:48.808Z,1010.80
2023-05-10T03:42:20.066Z,1010.60
2023-05-10T03:42:51.361Z,1010.60
2023-05-10T03:43:22.083Z,1011.00
2023-05-10T03:43:53.105Z,1011.00
2023-05-10T03:44:24.542Z,1010.80
2023-05-10T03:44:56.037Z,1010.80
2023-05-10T03:45:26.890Z,1010.70
2023-05-10T03:45:56.964Z,1010.70
2023-05-10T03:46:27.879Z,1010.90
2023-05-10T03:46:59.225Z,1010.90
2023-05-10T03:47:30.508Z,1010.80
2023-05-10T03:48:01.429Z,1010.80
2023-05-10T03:48:32.495Z,1011.11
2023-05-10T03:49:03.065Z,1011.11
2023-05-10T03:49:35.118Z,1010.90
2023-05-10T03:50:05.924Z,1010.90
2023-05-10T03:50:36.720Z,1010.90
2023-05-10T03:51:06.897Z,1010.90
2023-05-10T03:51:37.813Z,1010.90
2023-05-10T03:52:09.364Z,1010.90
2023-05-10T03:52:40.242Z,1010.90
2023-05-10T03:53:11.133Z,1010.90
2023-05-10T03:53:41.867Z,1010.90
2023-05-10T03:54:13.149Z,1010.70
2023-05-10T03:54:43.972Z,1010.70
2023-05-10T03:55:15.242Z,1010.80
2023-05-10T03:55:45.968Z,1010.80
2023-05-10T03:56:17.205Z,1010.90
2023-05-10T03:56:48.219Z,1010.90
2023-05-10T03:57:19.495Z,1010.90
2023-05-10T03:57:50.275Z,1010.90
2023-05-10T03:58:21.266Z,1011.00
2023-05-10T03:58:52.283Z,1011.00
2023-05-10T03:59:22.868Z,1010.90
2023-05-10T03:59:53.805Z,1010.90
2023-05-10T04:00:25.631Z,1010.90
2023-05-10T04:00:56.223Z,1010.90
2023-05-10T04:01:26.825Z,1011.00
2023-05-10T04:01:58.055Z,1011.00
2023-05-10T04:02:29.141Z,1010.80
2023-05-10T04:03:00.157Z,1010.80
2023-05-10T04:03:32.969Z,1011.00
2023-05-10T04:04:02.349Z,1011.00
2023-05-10T04:04:34.584Z,1011.00
2023-05-10T04:05:04.406Z,1011.00
2023-05-10T04:05:35.144Z,1011.11
2023-05-10T04:06:06.086Z,1010.90
2023-05-10T04:06:37.203Z,1010.90
2023-05-10T04:07:08.440Z,1011.00
2023-05-10T04:07:39.400Z,1011.00
2023-05-10T04:08:10.194Z,1010.90
2023-05-10T04:08:40.991Z,1010.90
2023-05-10T04:09:12.664Z,1010.90
2023-05-10T04:09:42.846Z,1010.90
2023-05-10T04:10:14.843Z,1010.70
2023-05-10T04:10:44.912Z,1010.70
2023-05-10T04:11:15.907Z,1011.11
2023-05-10T04:11:47.144Z,1011.11
2023-05-10T04:12:17.977Z,1010.80
2023-05-10T04:12:48.965Z,1010.80
2023-05-10T04:13:20.597Z,1010.80
2023-05-10T04:13:51.092Z,1010.80
2023-05-10T04:14:21.968Z,1011.00
2023-05-10T04:14:53.304Z,1011.00
2023-05-10T04:15:24.672Z,1010.90
2023-05-10T04:15:55.442Z,1010.90
2023-05-10T04:16:26.097Z,1011.00
2023-05-10T04:16:57.432Z,1011.00
2023-05-10T04:17:28.003Z,1011.00
2023-05-10T04:17:59.407Z,1011.00
2023-05-10T04:18:30.262Z,1011.21
2023-05-10T04:19:01.026Z,1011.21
2023-05-10T04:19:32.075Z,1011.00
2023-05-10T04:20:03.245Z,1011.00
2023-05-10T04:20:34.942Z,1011.11
2023-05-10T04:21:05.065Z,1010.90
2023-05-10T04:21:36.613Z,1010.90
2023-05-10T04:22:06.970Z,1011.00
2023-05-10T04:22:38.720Z,1011.00
2023-05-10T04:23:09.366Z,1011.21
2023-05-10T04:23:40.526Z,1011.21
2023-05-10T04:24:12.706Z,1010.90
2023-05-10T04:24:42.086Z,1010.90
2023-05-10T04:25:13.751Z,1011.11
2023-05-10T04:25:44.703Z,1011.11
2023-05-10T04:26:15.681Z,1011.00
2023-05-10T04:26:46.768Z,1011.00
2023-05-10T04:27:17.529Z,1011.00
2023-05-10T04:27:48.542Z,1011.00
2023-05-10T04:28:19.540Z,1011.21
2023-05-10T04:28:49.983Z,1011.21
2023-05-10T04:29:21.104Z,1010.90
2023-05-10T04:29:52.429Z,1010.90
2023-05-10T04:30:24.309Z,1011.00
2023-05-10T04:30:54.099Z,1011.00
2023-05-10T04:31:25.055Z,1011.00
2023-05-10T04:31:56.282Z,1011.00
2023-05-10T04:32:27.783Z,1011.00
2023-05-10T04:32:58.084Z,1011.00
2023-05-10T04:33:29.249Z,1011.11
2023-05-10T04:34:00.181Z,1011.11
2023-05-10T04:34:31.446Z,1011.21
2023-05-10T04:35:05.102Z,1011.21
2023-05-10T04:35:33.359Z,1011.11
2023-05-10T04:36:04.251Z,1011.11
2023-05-10T04:36:35.491Z,1010.90
2023-05-10T04:37:07.684Z,1011.00
2023-05-10T04:37:37.329Z,1011.00
2023-05-10T04:38:08.745Z,1010.90
2023-05-10T04:38:39.512Z,1010.90
2023-05-10T04:39:10.758Z,1011.00
2023-05-10T04:39:42.518Z,1011.00
2023-05-10T04:40:12.372Z,1011.11
2023-05-10T04:40:42.988Z,1011.11
2023-05-10T04:41:14.050Z,1011.31
2023-05-10T04:41:45.009Z,1011.31
2023-05-10T04:42:16.203Z,1011.31
2023-05-10T04:42:47.325Z,1011.31
2023-05-10T04:43:18.311Z,1011.31
2023-05-10T04:43:49.320Z,1011.31
2023-05-10T04:44:20.047Z,1011.21
2023-05-10T04:44:51.177Z,1011.21
2023-05-10T04:45:22.836Z,1011.41
2023-05-10T04:45:53.273Z,1011.41
2023-05-10T04:46:24.248Z,1011.11
2023-05-10T04:46:55.479Z,1011.11
2023-05-10T04:47:26.089Z,1011.11
2023-05-10T04:47:57.314Z,1011.11
2023-05-10T04:48:28.244Z,1011.31
2023-05-10T04:48:59.491Z,1011.31
2023-05-10T04:49:30.435Z,1011.21
2023-05-10T04:50:01.519Z,1011.21
2023-05-10T04:50:32.492Z,1011.31
2023-05-10T04:51:03.510Z,1011.31
2023-05-10T04:51:34.252Z,1011.41
2023-05-10T04:52:05.137Z,1011.31
2023-05-10T04:52:36.243Z,1011.31
2023-05-10T04:53:07.221Z,1011.11
2023-05-10T04:53:38.234Z,1011.11
2023-05-10T04:54:09.681Z,1011.31
2023-05-10T04:54:40.338Z,1011.31
2023-05-10T04:55:11.407Z,1011.21
2023-05-10T04:55:42.400Z,1011.21
2023-05-10T04:56:13.109Z,1011.21
2023-05-10T04:56:44.360Z,1011.21
2023-05-10T04:57:15.499Z,1011.51
2023-05-10T04:57:46.385Z,1011.51
2023-05-10T04:58:17.397Z,1011.31
2023-05-10T04:58:48.631Z,1011.31
2023-05-10T04:59:19.753Z,1011.21
2023-05-10T04:59:50.631Z,1011.21
2023-05-10T05:00:22.128Z,1011.21
2023-05-10T05:00:52.071Z,1011.21
2023-05-10T05:01:23.155Z,1011.41
2023-05-10T05:01:54.383Z,1011.41
2023-05-10T05:02:25.347Z,1011.21
2023-05-10T05:02:57.476Z,1011.21
2023-05-10T05:03:27.440Z,1011.21
2023-05-10T05:03:58.462Z,1011.21
2023-05-10T05:04:29.133Z,1011.41
2023-05-10T05:05:00.182Z,1011.41
2023-05-10T05:05:32.279Z,1011.31
2023-05-10T05:06:02.048Z,1011.31
2023-05-10T05:06:35.321Z,1011.31
2023-05-10T05:07:04.411Z,1011.31
2023-05-10T05:07:37.517Z,1011.31
2023-05-10T05:08:06.883Z,1011.31
2023-05-10T05:08:37.870Z,1011.31
2023-05-10T05:09:08.142Z,1011.11
2023-05-10T05:09:39.553Z,1011.11
2023-05-10T05:10:10.828Z,1011.31
2023-05-10T05:10:41.476Z,1011.31
2023-05-10T05:11:12.082Z,1011.21
2023-05-10T05:11:43.302Z,1011.21
2023-05-10T05:12:14.459Z,1011.41
2023-05-10T05:12:45.291Z,1011.41
2023-05-10T05:13:16.629Z,1011.21
2023-05-10T05:13:47.313Z,1011.21
2023-05-10T05:14:18.442Z,1011.21
2023-05-10T05:14:49.675Z,1011.21
2023-05-10T05:15:20.678Z,1011.41
2023-05-10T05:15:51.998Z,1011.41
2023-05-10T05:16:22.955Z,1011.31
2023-05-10T05:16:53.666Z,1011.31
2023-05-10T05:17:24.542Z,1011.11
2023-05-10T05:17:55.440Z,1011.11
2023-05-10T05:18:26.183Z,1011.31
2023-05-10T05:18:57.341Z,1011.31
2023-05-10T05:19:28.412Z,1011.41
2023-05-10T05:19:59.418Z,1011.41
2023-05-10T05:20:30.963Z,1011.21
2023-05-10T05:21:01.413Z,1011.21
2023-05-10T05:21:32.436Z,1011.51
2023-05-10T05:22:03.408Z,1011.51
2023-05-10T05:22:34.703Z,1011.61
2023-05-10T05:23:05.602Z,1011.31
2023-05-10T05:23:36.628Z,1011.31
2023-05-10T05:24:07.611Z,1011.51
2023-05-10T05:24:38.527Z,1011.51
2023-05-10T05:25:10.084Z,1011.51
2023-05-10T05:25:40.503Z,1011.51
2023-05-10T05:26:11.661Z,1011.31
2023-05-10T05:26:42.445Z,1011.31
2023-05-10T05:27:13.203Z,1011.31
2023-05-10T05:27:44.664Z,1011.31
2023-05-10T05:28:15.123Z,1011.41
2023-05-10T05:28:46.165Z,1011.41
2023-05-10T05:29:17.358Z,1011.41
2023-05-10T05:29:48.641Z,1011.41
2023-05-10T05:30:20.048Z,1011.31
2023-05-10T05:30:50.181Z,1011.31
2023-05-10T05:31:21.625Z,1011.21
2023-05-10T05:31:54.758Z,1011.21
2023-05-10T05:32:23.900Z,1011.51
2023-05-10T05:32:54.512Z,1011.51
2023-05-10T05:33:25.596Z,1011.41
2023-05-10T05:33:56.380Z,1011.41
2023-05-10T05:34:27.500Z,1011.61
2023-05-10T05:34:58.493Z,1011.61
2023-05-10T05:35:29.861Z,1011.41
2023-05-10T05:36:00.132Z,1011.41
2023-05-10T05:36:31.253Z,1011.41
2023-05-10T05:37:02.242Z,1011.41
2023-05-10T05:37:33.533Z,1011.51
2023-05-10T05:38:06.860Z,1011.61
2023-05-10T05:38:35.424Z,1011.61
2023-05-10T05:39:07.750Z,1011.51
2023-05-10T05:39:37.284Z,1011.51
2023-05-10T05:40:09.527Z,1011.72
2023-05-10T05:40:39.489Z,1011.72
2023-05-10T05:41:10.261Z,1011.51
2023-05-10T05:41:41.458Z,1011.51
2023-05-10T05:42:12.201Z,1011.61
2023-05-10T05:42:43.688Z,1011.61
2023-05-10T05:43:14.713Z,1011.41
2023-05-10T05:43:45.628Z,1011.41
2023-05-10T05:44:16.602Z,1011.51
2023-05-10T05:44:47.377Z,1011.51
2023-05-10T05:45:19.812Z,1011.51
2023-05-10T05:45:49.667Z,1011.51
2023-05-10T05:46:20.692Z,1011.51
2023-05-10T05:46:51.642Z,1011.51
2023-05-10T05:47:22.625Z,1011.41
2023-05-10T05:47:53.400Z,1011.41
2023-05-10T05:48:24.263Z,1011.41
2023-05-10T05:48:56.291Z,1011.41
2023-05-10T05:49:26.212Z,1011.51
2023-05-10T05:49:57.786Z,1011.51
2023-05-10T05:50:29.240Z,1011.51
2023-05-10T05:50:59.244Z,1011.51
2023-05-10T05:51:30.515Z,1011.51
2023-05-10T05:52:01.721Z,1011.51
2023-05-10T05:52:32.930Z,1011.61
2023-05-10T05:53:04.015Z,1011.61
2023-05-10T05:53:34.401Z,1011.61
2023-05-10T05:54:05.436Z,1011.61
2023-05-10T05:54:36.345Z,1011.61
2023-05-10T05:55:07.478Z,1011.51
2023-05-10T05:55:38.644Z,1011.51
2023-05-10T05:56:09.721Z,1011.61
2023-05-10T05:56:40.604Z,1011.61
2023-05-10T05:57:11.722Z,1011.78
2023-05-10T05:57:42.796Z,1011.78
2023-05-10T05:58:13.387Z,1011.61
2023-05-10T05:58:44.897Z,1011.61
2023-05-10T05:59:16.169Z,1011.72
2023-05-10T05:59:46.300Z,1011.72
2023-05-10T06:00:18.701Z,1011.51
2023-05-10T06:00:48.533Z,1011.51
2023-05-10T06:01:19.628Z,1011.72
2023-05-10T06:01:50.516Z,1011.72
2023-05-10T06:02:21.919Z,1011.89
2023-05-10T06:02:53.157Z,1011.89
2023-05-10T06:03:24.174Z,1011.78
2023-05-10T06:03:54.353Z,1011.78
2023-05-10T06:04:25.402Z,1011.72
2023-05-10T06:04:56.510Z,1011.72
2023-05-10T06:05:28.109Z,1011.99
2023-05-10T06:05:58.405Z,1011.99
2023-05-10T06:06:29.888Z,1011.89
2023-05-10T06:07:00.662Z,1011.89
2023-05-10T06:07:31.313Z,1011.72
2023-05-10T06:08:02.981Z,1011.72
2023-05-10T06:08:33.644Z,1011.72
2023-05-10T06:09:04.787Z,1011.72
2023-05-10T06:09:36.354Z,1011.78
2023-05-10T06:10:07.005Z,1011.72
2023-05-10T06:10:39.952Z,1011.72
2023-05-10T06:11:08.724Z,1011.61
2023-05-10T06:11:40.884Z,1011.61
2023-05-10T06:12:10.351Z,1011.61
2023-05-10T06:12:41.903Z,1011.61
2023-05-10T06:13:12.734Z,1011.72
2023-05-10T06:13:43.528Z,1011.72
2023-05-10T06:14:14.676Z,1011.72
2023-05-10T06:14:45.704Z,1011.72
2023-05-10T06:15:17.328Z,1011.61
2023-05-10T06:15:47.582Z,1011.61